createdAt,value
2023-03-15T00:01:11.362Z,99022.88
2023-03-15T00:03:38.814Z,99010.72
2023-03-15T00:06:05.928Z,99005.69
2023-03-15T00:08:35.738Z,98999.53
2023-03-15T00:11:02.605Z,99000.59
2023-03-15T00:13:29.611Z,98998.56
2023-03-15T00:16:00.993Z,98999.94
2023-03-15T00:18:28.351Z,99003.81
2023-03-15T00:20:55.404Z,99004.06
2023-03-15T00:23:22.543Z,98998.31
2023-03-15T00:25:51.496Z,99003.47
2023-03-15T00:28:18.493Z,98997.41
2023-03-15T00:30:45.848Z,98989.03
2023-03-15T00:33:14.281Z,98994.09
2023-03-15T00:35:43.083Z,98986.75
2023-03-15T00:38:10.438Z,98983.84
2023-03-15T00:40:38.252Z,98982.69
2023-03-15T00:43:05.460Z,98974.59
2023-03-15T00:45:32.506Z,98987.09
2023-03-15T00:47:59.240Z,98985.69
2023-03-15T00:50:26.000Z,98982.00
2023-03-15T00:52:52.695Z,98971.69
2023-03-15T00:55:19.901Z,98975.56
2023-03-15T00:57:46.824Z,98955.59
2023-03-15T01:00:20.373Z,98960.56
2023-03-15T01:02:47.597Z,98954.31
2023-03-15T01:05:15.047Z,98938.13
2023-03-15T01:07:42.480Z,98944.88
2023-03-15T01:10:11.192Z,98938.97
2023-03-15T01:12:38.147Z,98929.81
2023-03-15T01:15:07.727Z,98932.59
2023-03-15T01:17:35.087Z,98938.66
2023-03-15T01:20:02.220Z,98938.00
2023-03-15T01:22:29.134Z,98926.03
2023-03-15T01:24:55.891Z,98921.78
2023-03-15T01:27:22.525Z,98909.84
2023-03-15T01:29:49.226Z,98909.53
2023-03-15T01:32:15.906Z,98917.69
2023-03-15T01:34:43.358Z,98911.66
2023-03-15T01:37:14.622Z,98906.09
2023-03-15T01:39:42.705Z,98901.66
2023-03-15T01:42:10.522Z,98893.09
2023-03-15T01:44:57.857Z,98903.63
2023-03-15T01:47:27.399Z,98883.63
2023-03-15T01:50:11.691Z,98881.84
2023-03-15T01:52:41.877Z,98881.00
2023-03-15T01:55:19.669Z,98883.22
2023-03-15T01:57:57.435Z,98879.88
2023-03-15T02:00:24.458Z,98880.66
2023-03-15T02:03:04.598Z,98880.03
2023-03-15T02:05:36.436Z,98893.50
2023-03-15T02:08:07.396Z,98888.88
2023-03-15T02:10:44.098Z,98886.41
2023-03-15T02:13:15.683Z,98881.03
2023-03-15T02:15:46.911Z,98891.22
2023-03-15T02:18:14.731Z,98866.03
2023-03-15T02:21:05.350Z,98884.81
2023-03-15T02:23:32.518Z,98887.13
2023-03-15T02:26:05.316Z,98885.16
2023-03-15T02:28:32.791Z,98882.88
2023-03-15T02:31:00.223Z,98871.91
2023-03-15T02:33:29.782Z,98875.78
2023-03-15T02:36:06.513Z,98875.31
2023-03-15T02:38:33.246Z,98874.16
2023-03-15T02:41:00.349Z,98871.03
2023-03-15T02:43:31.121Z,98873.00
2023-03-15T02:45:58.726Z,98873.50
2023-03-15T02:48:26.243Z,98866.97
2023-03-15T02:50:52.939Z,98866.84
2023-03-15T02:53:19.603Z,98871.72
2023-03-15T02:55:46.282Z,98877.47
2023-03-15T02:58:13.091Z,98879.06
2023-03-15T03:00:39.811Z,98885.00
2023-03-15T03:03:06.583Z,98887.59
2023-03-15T03:05:33.276Z,98891.50
2023-03-15T03:07:59.966Z,98891.06
2023-03-15T03:10:26.651Z,98877.00
2023-03-15T03:12:53.844Z,98896.78
2023-03-15T03:15:21.551Z,98874.53
2023-03-15T03:17:48.821Z,98889.75
2023-03-15T03:20:16.151Z,98896.28
2023-03-15T03:22:45.021Z,98899.56
2023-03-15T03:25:12.548Z,98882.88
2023-03-15T03:27:42.233Z,98899.38
2023-03-15T03:30:12.083Z,98900.72
2023-03-15T03:32:40.781Z,98874.53
2023-03-15T03:35:09.070Z,98899.69
2023-03-15T03:37:35.984Z,98896.63
2023-03-15T03:40:05.450Z,98889.41
2023-03-15T03:42:32.177Z,98889.91
2023-03-15T03:44:58.805Z,98899.72
2023-03-15T03:47:25.530Z,98902.97
2023-03-15T03:49:52.200Z,98899.03
2023-03-15T03:52:18.900Z,98898.59
2023-03-15T03:54:45.572Z,98902.44
2023-03-15T03:57:12.354Z,98910.75
2023-03-15T03:59:39.044Z,98905.50
2023-03-15T04:02:05.760Z,98879.03
2023-03-15T04:04:32.878Z,98893.72
2023-03-15T04:06:59.579Z,98884.22
2023-03-15T04:09:26.319Z,98890.13
2023-03-15T04:11:53.050Z,98881.50
2023-03-15T04:14:19.694Z,98863.69
2023-03-15T04:16:46.356Z,98877.19
2023-03-15T04:19:13.061Z,98870.94
2023-03-15T04:21:39.821Z,98866.00
2023-03-15T04:24:07.568Z,98864.72
2023-03-15T04:26:34.732Z,98866.34
2023-03-15T04:29:01.526Z,98868.13
2023-03-15T04:31:28.255Z,98871.72
2023-03-15T04:33:55.418Z,98864.44
2023-03-15T04:36:23.804Z,98857.78
2023-03-15T04:38:50.797Z,98863.00
2023-03-15T04:41:18.482Z,98860.09
2023-03-15T04:43:45.212Z,98851.97
2023-03-15T04:46:11.946Z,98857.19
2023-03-15T04:48:38.645Z,98846.72
2023-03-15T04:51:05.495Z,98862.41
2023-03-15T04:53:32.203Z,98859.13
2023-03-15T04:55:58.933Z,98866.38
2023-03-15T04:58:25.603Z,98882.69
2023-03-15T05:00:54.279Z,98864.69
2023-03-15T05:03:21.235Z,98887.28
2023-03-15T05:05:47.899Z,98874.19
2023-03-15T05:08:14.550Z,98881.22
2023-03-15T05:10:41.263Z,98875.81
2023-03-15T05:13:07.930Z,98881.41
2023-03-15T05:15:34.617Z,98880.41
2023-03-15T05:18:01.296Z,98878.47
2023-03-15T05:20:27.987Z,98880.91
2023-03-15T05:22:54.814Z,98872.25
2023-03-15T05:25:21.662Z,98864.56
2023-03-15T05:27:48.843Z,98862.59
2023-03-15T05:30:16.345Z,98862.41
2023-03-15T05:32:44.845Z,98853.25
2023-03-15T05:35:13.274Z,98860.22
2023-03-15T05:37:40.429Z,98843.44
2023-03-15T05:40:08.345Z,98836.91
2023-03-15T05:42:35.475Z,98861.63
2023-03-15T05:45:02.374Z,98864.59
2023-03-15T05:47:29.330Z,98865.59
2023-03-15T05:49:56.002Z,98866.59
2023-03-15T05:52:22.747Z,98861.38
2023-03-15T05:54:49.775Z,98866.69
2023-03-15T05:57:16.456Z,98853.91
2023-03-15T05:59:43.100Z,98870.75
2023-03-15T06:02:10.361Z,98858.91
2023-03-15T06:04:38.220Z,98859.47
2023-03-15T06:07:05.467Z,98860.88
2023-03-15T06:09:32.278Z,98864.63
2023-03-15T06:11:59.259Z,98856.88
2023-03-15T06:14:27.448Z,98857.72
2023-03-15T06:16:54.240Z,98862.88
2023-03-15T06:19:21.869Z,98844.63
2023-03-15T06:21:48.959Z,98861.53
2023-03-15T06:24:16.197Z,98859.72
2023-03-15T06:26:42.966Z,98855.00
2023-03-15T06:29:09.592Z,98849.91
2023-03-15T06:31:36.286Z,98844.38
2023-03-15T06:34:02.972Z,98847.75
2023-03-15T06:36:30.931Z,98859.09
2023-03-15T06:38:57.741Z,98851.53
2023-03-15T06:41:24.417Z,98835.50
2023-03-15T06:43:51.055Z,98840.94
2023-03-15T06:46:17.834Z,98841.09
2023-03-15T06:48:44.594Z,98853.22
2023-03-15T06:51:11.213Z,98846.19
2023-03-15T06:53:37.938Z,98846.31
2023-03-15T06:56:04.998Z,98837.06
2023-03-15T06:58:31.787Z,98834.28
2023-03-15T07:00:59.395Z,98830.69
2023-03-15T07:03:26.170Z,98824.13
2023-03-15T07:05:54.490Z,98832.25
2023-03-15T07:08:23.654Z,98837.31
2023-03-15T07:10:50.728Z,98821.31
2023-03-15T07:13:19.023Z,98810.91
2023-03-15T07:15:47.841Z,98799.13
2023-03-15T07:18:14.640Z,98786.34
2023-03-15T07:20:42.000Z,98799.56
2023-03-15T07:23:08.691Z,98796.75
2023-03-15T07:25:48.369Z,98802.44
2023-03-15T07:28:19.048Z,98797.25
2023-03-15T07:30:53.394Z,98808.28
2023-03-15T07:33:22.610Z,98813.50
2023-03-15T07:35:50.930Z,98810.94
2023-03-15T07:38:17.615Z,98819.28
2023-03-15T07:40:44.383Z,98814.28
2023-03-15T07:43:11.155Z,98824.00
2023-03-15T07:45:37.838Z,98803.53
2023-03-15T07:48:04.620Z,98813.03
2023-03-15T07:50:31.253Z,98817.09
2023-03-15T07:52:58.395Z,98818.44
2023-03-15T07:55:25.565Z,98797.31
2023-03-15T07:57:53.370Z,98809.72
2023-03-15T08:00:20.655Z,98818.28
2023-03-15T08:02:47.450Z,98810.22
2023-03-15T08:05:14.163Z,98814.91
2023-03-15T08:07:41.056Z,98802.81
2023-03-15T08:10:08.385Z,98801.03
2023-03-15T08:12:35.409Z,98798.50
2023-03-15T08:15:02.047Z,98801.00
2023-03-15T08:17:28.806Z,98808.75
2023-03-15T08:19:55.470Z,98812.78
2023-03-15T08:22:22.192Z,98803.69
2023-03-15T08:24:49.361Z,98807.66
2023-03-15T08:27:16.515Z,98795.38
2023-03-15T08:29:43.192Z,98772.16
2023-03-15T08:32:10.243Z,98796.81
2023-03-15T08:34:36.876Z,98777.91
2023-03-15T08:37:03.748Z,98783.91
2023-03-15T08:39:30.460Z,98770.28
2023-03-15T08:41:57.107Z,98772.88
2023-03-15T08:44:23.836Z,98775.72
2023-03-15T08:46:50.931Z,98769.38
2023-03-15T08:49:17.557Z,98767.59
2023-03-15T08:51:44.182Z,98757.78
2023-03-15T08:54:10.881Z,98744.22
2023-03-15T08:56:37.516Z,98749.03
2023-03-15T08:59:04.155Z,98753.09
2023-03-15T09:01:31.001Z,98755.72
2023-03-15T09:03:57.817Z,98750.53
2023-03-15T09:06:25.126Z,98754.47
2023-03-15T09:08:53.925Z,98743.28
2023-03-15T09:11:21.292Z,98740.69
2023-03-15T09:13:48.842Z,98738.25
2023-03-15T09:16:15.853Z,98733.59
2023-03-15T09:18:44.144Z,98733.69
2023-03-15T09:21:11.798Z,98731.16
2023-03-15T09:23:40.995Z,98722.97
2023-03-15T09:26:07.667Z,98727.88
2023-03-15T09:28:34.917Z,98722.63
2023-03-15T09:31:04.964Z,98727.25
2023-03-15T09:33:33.239Z,98720.03
2023-03-15T09:36:00.169Z,98727.03
2023-03-15T09:38:27.134Z,98719.38
2023-03-15T09:40:59.107Z,98718.00
2023-03-15T09:43:35.080Z,98715.91
2023-03-15T09:46:16.758Z,98710.16
2023-03-15T09:49:00.738Z,98702.06
2023-03-15T09:51:51.516Z,98694.63
2023-03-15T09:54:19.339Z,98687.63
2023-03-15T09:57:24.080Z,98690.81
2023-03-15T09:59:54.260Z,98687.91
2023-03-15T10:02:25.476Z,98678.72
2023-03-15T10:04:58.298Z,98677.19
2023-03-15T10:07:24.965Z,98673.69
2023-03-15T10:09:51.853Z,98666.81
2023-03-15T10:12:29.616Z,98669.16
2023-03-15T10:15:08.924Z,98664.81
2023-03-15T10:17:53.932Z,98655.38
2023-03-15T10:20:26.540Z,98649.63
2023-03-15T10:22:56.170Z,98650.75
2023-03-15T10:25:33.129Z,98645.69
2023-03-15T10:28:07.981Z,98634.53
2023-03-15T10:30:38.484Z,98638.91
2023-03-15T10:33:15.733Z,98632.44
2023-03-15T10:35:43.046Z,98628.31
2023-03-15T10:38:21.120Z,98618.00
2023-03-15T10:41:00.659Z,98622.50
2023-03-15T10:43:30.415Z,98610.81
2023-03-15T10:46:19.729Z,98609.78
2023-03-15T10:48:58.346Z,98618.13
2023-03-15T10:51:33.519Z,98615.53
2023-03-15T10:54:09.213Z,98610.81
2023-03-15T10:56:44.246Z,98608.63
2023-03-15T10:59:24.388Z,98604.66
2023-03-15T11:01:54.143Z,98595.19
2023-03-15T11:04:24.114Z,98600.94
2023-03-15T11:07:03.286Z,98584.28
2023-03-15T11:09:45.788Z,98578.91
2023-03-15T11:12:27.297Z,98585.88
2023-03-15T11:15:00.926Z,98574.22
2023-03-15T11:17:32.308Z,98569.97
2023-03-15T11:20:11.601Z,98561.91
2023-03-15T11:22:38.539Z,98565.13
2023-03-15T11:25:06.097Z,98559.59
2023-03-15T11:27:32.979Z,98550.69
2023-03-15T11:30:01.967Z,98547.97
2023-03-15T11:32:31.779Z,98543.31
2023-03-15T11:35:06.381Z,98533.28
2023-03-15T11:38:15.720Z,98527.16
2023-03-15T11:40:51.233Z,98533.19
2023-03-15T11:43:36.384Z,98525.63
2023-03-15T11:46:17.234Z,98523.22
2023-03-15T11:48:46.984Z,98534.03
2023-03-15T11:51:14.367Z,98523.88
2023-03-15T11:53:59.934Z,98515.84
2023-03-15T11:56:44.814Z,98516.19
2023-03-15T11:59:15.555Z,98514.56
2023-03-15T12:01:56.756Z,98498.19
2023-03-15T12:04:29.457Z,98492.25
2023-03-15T12:06:58.213Z,98486.31
2023-03-15T12:09:34.019Z,98484.66
2023-03-15T12:12:04.664Z,98476.59
2023-03-15T12:14:36.662Z,98477.69
2023-03-15T12:17:24.932Z,98472.66
2023-03-15T12:20:18.658Z,98473.63
2023-03-15T12:22:52.692Z,98467.00
2023-03-15T12:25:35.413Z,98469.81
2023-03-15T12:28:10.726Z,98465.78
2023-03-15T12:30:42.837Z,98475.94
2023-03-15T12:33:20.378Z,98474.88
2023-03-15T12:35:49.852Z,98481.56
2023-03-15T12:38:19.883Z,98469.00
2023-03-15T12:40:57.698Z,98466.84
2023-03-15T12:43:43.948Z,98460.00
2023-03-15T12:46:38.682Z,98466.69
2023-03-15T12:49:26.752Z,98457.97
2023-03-15T12:52:11.735Z,98475.69
2023-03-15T12:54:46.916Z,98475.63
2023-03-15T12:57:17.727Z,98464.78
2023-03-15T12:59:55.148Z,98473.09
2023-03-15T13:02:39.586Z,98476.38
2023-03-15T13:05:17.393Z,98483.06
2023-03-15T13:08:04.457Z,98473.47
2023-03-15T13:10:50.730Z,98473.97
2023-03-15T13:13:54.540Z,98470.72
2023-03-15T13:17:03.592Z,98474.03
2023-03-15T13:19:43.636Z,98447.44
2023-03-15T13:22:25.180Z,98461.69
2023-03-15T13:25:18.739Z,98481.56
2023-03-15T13:27:55.989Z,98473.22
2023-03-15T13:30:35.342Z,98479.97
2023-03-15T13:33:10.441Z,98459.28
2023-03-15T13:35:56.543Z,98470.78
2023-03-15T13:38:30.930Z,98477.25
2023-03-15T13:40:59.929Z,98469.22
2023-03-15T13:43:30.208Z,98476.47
2023-03-15T13:45:58.894Z,98449.88
2023-03-15T13:48:37.669Z,98466.28
2023-03-15T13:51:26.474Z,98471.91
2023-03-15T13:53:56.221Z,98468.66
2023-03-15T13:56:43.507Z,98461.44
2023-03-15T13:59:15.733Z,98460.09
2023-03-15T14:01:43.056Z,98472.47
2023-03-15T14:04:16.605Z,98467.63
2023-03-15T14:06:45.812Z,98464.94
2023-03-15T14:09:22.859Z,98471.91
2023-03-15T14:12:07.399Z,98463.34
2023-03-15T14:14:38.697Z,98467.63
2023-03-15T14:17:25.791Z,98461.72
2023-03-15T14:20:06.977Z,98472.31
2023-03-15T14:22:35.936Z,98461.41
2023-03-15T14:25:04.209Z,98457.97
2023-03-15T14:27:31.962Z,98467.88
2023-03-15T14:30:01.118Z,98471.09
2023-03-15T14:32:34.763Z,98467.09
2023-03-15T14:35:23.139Z,98462.78
2023-03-15T14:38:02.374Z,98455.53
2023-03-15T14:40:34.873Z,98455.28
2023-03-15T14:43:06.864Z,98453.66
2023-03-15T14:45:36.905Z,98456.03
2023-03-15T14:48:08.510Z,98456.34
2023-03-15T14:50:41.583Z,98465.91
2023-03-15T14:53:12.902Z,98466.19
2023-03-15T14:55:39.597Z,98456.53
2023-03-15T14:58:17.825Z,98454.22
2023-03-15T15:00:47.612Z,98453.56
2023-03-15T15:03:29.652Z,98458.06
2023-03-15T15:05:56.327Z,98452.78
2023-03-15T15:08:23.417Z,98452.78
2023-03-15T15:10:52.135Z,98448.50
2023-03-15T15:13:27.832Z,98450.16
2023-03-15T15:15:56.912Z,98451.72
2023-03-15T15:18:29.495Z,98451.66
2023-03-15T15:20:58.385Z,98450.06
2023-03-15T15:23:30.586Z,98449.81
2023-03-15T15:26:05.859Z,98453.13
2023-03-15T15:28:37.000Z,98443.84
2023-03-15T15:31:07.081Z,98450.66
2023-03-15T15:33:34.268Z,98456.69
2023-03-15T15:36:01.209Z,98455.91
2023-03-15T15:38:34.842Z,98449.97
2023-03-15T15:41:01.695Z,98464.09
2023-03-15T15:43:28.470Z,98458.06
2023-03-15T15:45:55.365Z,98464.91
2023-03-15T15:48:22.260Z,98461.97
2023-03-15T15:50:48.951Z,98462.00
2023-03-15T15:53:17.939Z,98461.69
2023-03-15T15:55:45.919Z,98466.09
2023-03-15T15:58:13.941Z,98461.31
2023-03-15T16:00:40.738Z,98463.81
2023-03-15T16:03:17.356Z,98463.66
2023-03-15T16:05:44.083Z,98460.22
2023-03-15T16:08:21.984Z,98464.91
2023-03-15T16:10:48.784Z,98467.03
2023-03-15T16:13:15.568Z,98457.47
2023-03-15T16:15:42.307Z,98467.97
2023-03-15T16:18:11.068Z,98457.44
2023-03-15T16:20:39.499Z,98467.75
2023-03-15T16:23:06.720Z,98465.31
2023-03-15T16:25:36.345Z,98461.25
2023-03-15T16:28:04.509Z,98470.84
2023-03-15T16:30:32.296Z,98463.75
2023-03-15T16:32:59.211Z,98462.72
2023-03-15T16:35:36.015Z,98464.63
2023-03-15T16:38:06.399Z,98446.38
2023-03-15T16:40:34.770Z,98470.94
2023-03-15T16:43:01.816Z,98474.41
2023-03-15T16:45:28.789Z,98466.56
2023-03-15T16:47:56.532Z,98486.09
2023-03-15T16:50:23.970Z,98468.78
2023-03-15T16:52:55.065Z,98479.34
2023-03-15T16:55:25.257Z,98478.19
2023-03-15T16:57:52.061Z,98485.97
2023-03-15T17:00:20.812Z,98492.84
2023-03-15T17:02:49.916Z,98495.53
2023-03-15T17:05:21.023Z,98484.91
2023-03-15T17:07:49.672Z,98496.44
2023-03-15T17:10:21.913Z,98493.84
2023-03-15T17:12:49.740Z,98483.69
2023-03-15T17:15:20.509Z,98499.19
2023-03-15T17:17:48.904Z,98483.59
2023-03-15T17:20:22.062Z,98487.72
2023-03-15T17:22:50.049Z,98508.19
2023-03-15T17:25:17.507Z,98502.53
2023-03-15T17:27:46.618Z,98506.84
2023-03-15T17:30:22.449Z,98510.06
2023-03-15T17:32:49.320Z,98481.78
2023-03-15T17:35:17.901Z,98507.31
2023-03-15T17:37:45.578Z,98506.59
2023-03-15T17:40:34.678Z,98504.31
2023-03-15T17:43:03.493Z,98500.84
2023-03-15T17:45:34.843Z,98511.81
2023-03-15T17:48:02.014Z,98505.78
2023-03-15T17:50:32.367Z,98515.81
2023-03-15T17:53:16.543Z,98515.34
2023-03-15T17:55:43.888Z,98511.41
2023-03-15T17:58:16.225Z,98510.56
2023-03-15T18:00:43.691Z,98520.81
2023-03-15T18:03:13.358Z,98519.44
2023-03-15T18:05:40.241Z,98467.19
2023-03-15T18:08:08.133Z,98524.47
2023-03-15T18:10:39.625Z,98526.53
2023-03-15T18:13:06.291Z,98532.09
2023-03-15T18:15:34.069Z,98530.50
2023-03-15T18:18:00.802Z,98540.22
2023-03-15T18:20:28.687Z,98555.78
2023-03-15T18:22:55.385Z,98553.00
2023-03-15T18:25:33.235Z,98557.47
2023-03-15T18:28:00.183Z,98561.31
2023-03-15T18:30:29.171Z,98570.13
2023-03-15T18:32:56.728Z,98569.09
2023-03-15T18:35:26.432Z,98570.50
2023-03-15T18:37:56.041Z,98567.13
2023-03-15T18:40:23.718Z,98564.84
2023-03-15T18:42:50.756Z,98553.94
2023-03-15T18:45:19.006Z,98537.53
2023-03-15T18:47:45.672Z,98549.88
2023-03-15T18:50:13.340Z,98545.00
2023-03-15T18:52:40.363Z,98542.50
2023-03-15T18:55:08.840Z,98544.31
2023-03-15T18:57:36.452Z,98548.16
2023-03-15T19:00:14.290Z,98529.66
2023-03-15T19:02:42.370Z,98552.50
2023-03-15T19:05:09.756Z,98561.22
2023-03-15T19:07:37.654Z,98572.06
2023-03-15T19:10:06.281Z,98567.03
2023-03-15T19:12:33.853Z,98563.03
2023-03-15T19:15:00.643Z,98565.09
2023-03-15T19:17:27.319Z,98563.81
2023-03-15T19:19:53.980Z,98566.22
2023-03-15T19:22:20.677Z,98565.69
2023-03-15T19:24:47.388Z,98559.63
2023-03-15T19:27:14.083Z,98565.94
2023-03-15T19:29:40.948Z,98548.53
2023-03-15T19:32:07.724Z,98560.22
2023-03-15T19:34:34.488Z,98561.28
2023-03-15T19:37:01.771Z,98558.84
2023-03-15T19:39:28.491Z,98546.69
2023-03-15T19:41:55.183Z,98547.03
2023-03-15T19:44:22.615Z,98563.09
2023-03-15T19:46:50.127Z,98570.06
2023-03-15T19:49:17.053Z,98563.22
2023-03-15T19:51:43.715Z,98575.97
2023-03-15T19:54:10.707Z,98567.09
2023-03-15T19:56:37.340Z,98566.34
2023-03-15T19:59:04.578Z,98557.06
2023-03-15T20:01:32.535Z,98549.47
2023-03-15T20:04:00.164Z,98551.91
2023-03-15T20:06:26.986Z,98550.06
2023-03-15T20:08:54.686Z,98551.31
2023-03-15T20:11:25.332Z,98567.13
2023-03-15T20:13:52.928Z,98559.88
2023-03-15T20:16:21.270Z,98567.25
2023-03-15T20:18:51.123Z,98569.63
2023-03-15T20:21:19.017Z,98577.06
2023-03-15T20:23:49.846Z,98574.72
2023-03-15T20:26:18.074Z,98558.19
2023-03-15T20:28:47.236Z,98557.22
2023-03-15T20:31:17.438Z,98535.50
2023-03-15T20:33:47.596Z,98559.25
2023-03-15T20:36:14.688Z,98558.16
2023-03-15T20:38:41.393Z,98567.13
2023-03-15T20:41:08.121Z,98564.13
2023-03-15T20:43:35.550Z,98563.09
2023-03-15T20:46:04.420Z,98563.38
2023-03-15T20:48:33.648Z,98569.13
2023-03-15T20:51:00.352Z,98566.13
2023-03-15T20:53:27.030Z,98564.66
2023-03-15T20:55:53.663Z,98569.81
2023-03-15T20:58:21.469Z,98564.78
2023-03-15T21:00:48.410Z,98564.75
2023-03-15T21:03:16.319Z,98565.59
2023-03-15T21:05:45.445Z,98565.19
2023-03-15T21:11:08.849Z,98563.59
2023-03-15T21:13:35.821Z,98571.00
2023-03-15T21:16:04.583Z,98559.59
2023-03-15T21:18:32.057Z,98560.72
2023-03-15T21:21:01.409Z,98564.06
2023-03-15T21:23:31.526Z,98567.66
2023-03-15T21:25:59.787Z,98573.00
2023-03-15T21:28:26.506Z,98572.25
2023-03-15T21:30:54.395Z,98566.69
2023-03-15T21:33:22.856Z,98568.69
2023-03-15T21:35:49.980Z,98551.81
2023-03-15T21:38:17.043Z,98567.63
2023-03-15T21:40:48.460Z,98582.44
2023-03-15T21:43:15.216Z,98590.97
2023-03-15T21:45:42.558Z,98592.13
2023-03-15T21:51:05.147Z,98588.19
2023-03-15T21:53:34.204Z,98594.53
2023-03-15T21:56:02.030Z,98599.13
2023-03-15T21:58:29.404Z,98586.09
2023-03-15T22:01:01.330Z,98594.16
2023-03-15T22:03:29.604Z,98590.47
2023-03-15T22:05:56.374Z,98588.50
2023-03-15T22:08:24.534Z,98599.59
2023-03-15T22:10:55.656Z,98590.75
2023-03-15T22:13:22.692Z,98596.25
2023-03-15T22:15:49.743Z,98598.78
2023-03-15T22:18:16.455Z,98602.50
2023-03-15T22:20:43.114Z,98599.09
2023-03-15T22:23:09.780Z,98609.91
2023-03-15T22:25:38.749Z,98606.19
2023-03-15T22:28:05.673Z,98617.25
2023-03-15T22:30:32.483Z,98626.31
2023-03-15T22:32:59.425Z,98621.19
2023-03-15T22:35:26.275Z,98622.91
2023-03-15T22:37:56.857Z,98628.34
2023-03-15T22:40:25.951Z,98625.09
2023-03-15T22:42:53.149Z,98623.66
2023-03-15T22:45:21.236Z,98626.38
2023-03-15T22:47:51.396Z,98621.06
2023-03-15T22:50:18.062Z,98617.91
2023-03-15T22:52:44.717Z,98636.69
2023-03-15T22:55:12.325Z,98634.03
2023-03-15T22:57:39.308Z,98627.81
2023-03-15T23:00:08.115Z,98638.00
2023-03-15T23:02:35.090Z,98648.31
2023-03-15T23:05:01.941Z,98641.34
2023-03-15T23:07:28.688Z,98644.91
2023-03-15T23:09:56.073Z,98645.16
2023-03-15T23:12:33.855Z,98637.34
2023-03-15T23:15:04.149Z,98631.59
2023-03-15T23:17:31.408Z,98631.16
2023-03-15T23:19:58.174Z,98634.31
2023-03-15T23:22:24.889Z,98633.34
2023-03-15T23:24:51.693Z,98642.25
2023-03-15T23:27:18.345Z,98640.31
2023-03-15T23:29:54.218Z,98642.50
2023-03-15T23:32:22.243Z,98640.44
2023-03-15T23:34:49.028Z,98634.28
2023-03-15T23:37:15.730Z,98639.56
2023-03-15T23:39:43.099Z,98653.34
2023-03-15T23:42:10.463Z,98643.72
2023-03-15T23:44:37.844Z,98642.97
2023-03-15T23:47:05.817Z,98650.38
2023-03-15T23:49:33.361Z,98646.25
2023-03-15T23:52:05.917Z,98641.94
2023-03-15T23:54:40.080Z,98649.75
2023-03-15T23:57:14.535Z,98645.78
2023-03-15T23:59:42.402Z,98650.69
